»·PEaware :: CANNON61 KLSV-KLSV

CANNON61 :: KLSV-KLSV

FLIGHT INFORMATION

Flight Status: Arrived
Operator: Unknown
More flights by this operator :: More flights under this callsign
Pilot: Anonymous 3903 (3903)
Aircraft: FAIRCHILD A-10 THUNDERBOLT 2
(A10)
More flights by this aircraft type
Origin: KLSV Nellis AFB
United States
Destination: KLSV Nellis AFB
United States
More flights between these airports :: More routes between these airports
Route: +
File this flight plan on PilotEdge
Remarks:
Altitude:
(Current/Filed)
0ft
Speed:
(Current/Filed)
0kts
Departed: 30-Jun-19 08:58 PM
Arrived: 30-Jun-19 09:59 PM
Distance/Time
Traveled:
1nm/1:00
Distance/Time
To Go:
Arrived

Flight Plot

Page will automatically refresh every two minutes.


Map Options




Map Legend


Flown Route
Filed Route
Departure Airport
Arrival Airport
Navaid (VOR, NDB)
Fix

Horizontal Profiles

Position Reports

Time Latitude Longitude Heading Altitude Ground
Speed
30-Jun-19 20:50 36.229107 -115.047917 129 1853ft 0kts
30-Jun-19 20:52 36.229107 -115.047917 129 1853ft 0kts
30-Jun-19 20:52 36.229044 -115.047830 131 1853ft 7kts
30-Jun-19 20:53 36.227282 -115.047761 129 1850ft 0kts
30-Jun-19 20:55 36.227282 -115.047761 129 1850ft 0kts
30-Jun-19 20:55 36.227282 -115.047761 129 1850ft 0kts
30-Jun-19 20:56 36.227114 -115.047287 116 1849ft 9kts
30-Jun-19 20:57 36.233303 -115.039836 40 1853ft 103kts
30-Jun-19 20:58 36.267308 -115.004758 47 2327ft 193kts
30-Jun-19 20:59 36.306233 -115.027850 283 3068ft 215kts
30-Jun-19 21:00 36.320926 -115.108486 277 3466ft 255kts
30-Jun-19 21:01 36.332781 -115.195630 277 3629ft 244kts
30-Jun-19 21:02 36.351263 -115.278239 285 3606ft 250kts
30-Jun-19 21:03 36.375586 -115.359528 296 3857ft 236kts
30-Jun-19 21:04 36.412151 -115.431996 299 4322ft 252kts
30-Jun-19 21:05 36.443353 -115.507833 297 5283ft 233kts
30-Jun-19 21:06 36.475293 -115.585346 304 6003ft 269kts
30-Jun-19 21:07 36.535405 -115.638199 345 6203ft 259kts
30-Jun-19 21:08 36.602503 -115.648197 36 7291ft 232kts
30-Jun-19 21:09 36.639164 -115.578836 61 9050ft 260kts
30-Jun-19 21:10 36.683249 -115.499313 56 8900ft 296kts
30-Jun-19 21:11 36.741037 -115.425923 34 8870ft 300kts
30-Jun-19 21:12 36.820731 -115.405975 3 9664ft 274kts
30-Jun-19 21:13 36.865358 -115.475285 257 9770ft 302kts
30-Jun-19 21:14 36.809329 -115.531283 182 9816ft 268kts
30-Jun-19 21:15 36.739233 -115.562185 202 9613ft 271kts
30-Jun-19 21:16 36.671797 -115.604975 188 7524ft 265kts
30-Jun-19 21:17 36.609425 -115.623339 178 5102ft 193kts
30-Jun-19 21:18 36.583323 -115.661427 267 3172ft 148kts
30-Jun-19 21:19 36.584084 -115.685021 271 3134ft 13kts
30-Jun-19 21:20 36.581577 -115.684790 112 3134ft 7kts
30-Jun-19 21:21 36.581545 -115.684504 78 3133ft 0kts
30-Jun-19 21:22 36.581545 -115.684504 78 3133ft 0kts
30-Jun-19 21:23 36.581545 -115.684504 78 3133ft 0kts
30-Jun-19 21:24 36.581545 -115.684504 78 3133ft 0kts
30-Jun-19 21:25 36.581545 -115.684504 78 3133ft 0kts
30-Jun-19 21:26 36.581586 -115.684397 56 3133ft 0kts
30-Jun-19 21:27 36.581552 -115.679683 91 3134ft 27kts
30-Jun-19 21:28 36.581365 -115.674050 90 3134ft 28kts
30-Jun-19 21:29 36.582646 -115.664983 353 3134ft 15kts
30-Jun-19 21:30 36.583246 -115.664983 2 3134ft 16kts
30-Jun-19 21:31 36.584265 -115.689751 266 3191ft 170kts
30-Jun-19 21:32 36.603988 -115.738401 29 5012ft 189kts
30-Jun-19 21:33 36.632009 -115.689209 105 7700ft 213kts
30-Jun-19 21:34 36.618752 -115.610418 93 10206ft 243kts
30-Jun-19 21:35 36.616131 -115.522773 91 12455ft 265kts
30-Jun-19 21:36 36.643691 -115.437835 18 12519ft 329kts
30-Jun-19 21:37 36.732889 -115.411389 11 12829ft 344kts
30-Jun-19 21:38 36.829916 -115.428342 352 9076ft 419kts
30-Jun-19 21:39 36.878269 -115.474652 297 5532ft 349kts
30-Jun-19 21:40 36.830975 -115.516823 166 8870ft 236kts
30-Jun-19 21:41 36.800302 -115.455623 70 10398ft 211kts
30-Jun-19 21:42 36.854051 -115.408289 24 11184ft 293kts
30-Jun-19 21:43 36.933594 -115.436168 284 10724ft 349kts
30-Jun-19 21:44 36.872246 -115.477358 173 10823ft 285kts
30-Jun-19 21:45 36.789953 -115.476886 172 10844ft 302kts
30-Jun-19 21:46 36.704166 -115.471871 172 10723ft 309kts
30-Jun-19 21:47 36.617692 -115.471194 171 10641ft 308kts
30-Jun-19 21:48 36.535294 -115.452349 139 10634ft 297kts
30-Jun-19 21:49 36.483369 -115.375220 99 10104ft 288kts
30-Jun-19 21:50 36.476650 -115.280730 95 9499ft 264kts
30-Jun-19 21:51 36.459905 -115.193793 110 7872ft 255kts
30-Jun-19 21:52 36.431849 -115.116163 111 7828ft 249kts
30-Jun-19 21:53 36.400938 -115.032140 111 7796ft 279kts
30-Jun-19 21:54 36.367200 -114.949045 125 5688ft 261kts
30-Jun-19 21:55 36.304202 -114.966629 213 4605ft 298kts
30-Jun-19 21:56 36.245198 -115.035164 289 3530ft 287kts
30-Jun-19 21:57 36.261479 -115.014027 187 2255ft 143kts
30-Jun-19 21:58 36.238377 -115.033976 218 1857ft 17kts
30-Jun-19 21:59 36.237018 -115.035306 223 1857ft 31kts
30-Jun-19 22:00 36.227329 -115.046116 240 1849ft 36kts

Navigation Log

Ident Type
Flight plan parsing failed, navigation log unavailable